sensor_id;sensor_type;location;lat;lon;timestamp;P1;durP1;ratioP1;P2;durP2;ratioP2
63095;SDS011;49184;55.596;37.770;2023-07-31T00:01:49;10.20;;;5.87;;
63095;SDS011;49184;55.596;37.770;2023-07-31T00:04:15;14.67;;;6.40;;
63095;SDS011;49184;55.596;37.770;2023-07-31T00:06:41;17.43;;;7.17;;
63095;SDS011;49184;55.596;37.770;2023-07-31T00:09:07;17.90;;;7.17;;
63095;SDS011;49184;55.596;37.770;2023-07-31T00:11:32;18.30;;;7.57;;
63095;SDS011;49184;55.596;37.770;2023-07-31T00:13:58;15.90;;;8.13;;
63095;SDS011;49184;55.596;37.770;2023-07-31T00:16:25;22.17;;;8.17;;
63095;SDS011;49184;55.596;37.770;2023-07-31T00:18:51;23.53;;;7.40;;
63095;SDS011;49184;55.596;37.770;2023-07-31T00:21:17;22.93;;;8.40;;
63095;SDS011;49184;55.596;37.770;2023-07-31T00:23:42;28.37;;;7.90;;
63095;SDS011;49184;55.596;37.770;2023-07-31T00:26:08;17.30;;;8.33;;
63095;SDS011;49184;55.596;37.770;2023-07-31T00:28:34;16.70;;;8.40;;
63095;SDS011;49184;55.596;37.770;2023-07-31T00:31:00;29.73;;;8.30;;
63095;SDS011;49184;55.596;37.770;2023-07-31T00:33:28;28.25;;;8.20;;
63095;SDS011;49184;55.596;37.770;2023-07-31T00:35:55;16.83;;;7.45;;
63095;SDS011;49184;55.596;37.770;2023-07-31T00:38:21;30.63;;;8.47;;
63095;SDS011;49184;55.596;37.770;2023-07-31T00:40:47;21.63;;;8.23;;
63095;SDS011;49184;55.596;37.770;2023-07-31T00:43:12;28.05;;;8.60;;
63095;SDS011;49184;55.596;37.770;2023-07-31T00:45:40;32.63;;;9.13;;
63095;SDS011;49184;55.596;37.770;2023-07-31T00:48:06;27.33;;;9.05;;
63095;SDS011;49184;55.596;37.770;2023-07-31T00:50:33;20.88;;;8.70;;
63095;SDS011;49184;55.596;37.770;2023-07-31T00:53:00;17.58;;;8.05;;
63095;SDS011;49184;55.596;37.770;2023-07-31T00:55:26;23.67;;;9.00;;
63095;SDS011;49184;55.596;37.770;2023-07-31T00:57:53;16.33;;;8.00;;
63095;SDS011;49184;55.596;37.770;2023-07-31T01:00:21;44.92;;;7.50;;
63095;SDS011;49184;55.596;37.770;2023-07-31T01:02:48;22.13;;;7.22;;
63095;SDS011;49184;55.596;37.770;2023-07-31T01:05:17;33.38;;;7.95;;
63095;SDS011;49184;55.596;37.770;2023-07-31T01:07:56;24.77;;;7.57;;
63095;SDS011;49184;55.596;37.770;2023-07-31T01:10:30;19.33;;;7.32;;
63095;SDS011;49184;55.596;37.770;2023-07-31T01:13:11;17.13;;;6.55;;
63095;SDS011;49184;55.596;37.770;2023-07-31T01:15:37;20.02;;;6.90;;
63095;SDS011;49184;55.596;37.770;2023-07-31T01:18:04;16.90;;;6.68;;
63095;SDS011;49184;55.596;37.770;2023-07-31T01:20:30;14.53;;;6.97;;
63095;SDS011;49184;55.596;37.770;2023-07-31T01:31:07;16.40;;;6.93;;
63095;SDS011;49184;55.596;37.770;2023-07-31T01:33:36;16.58;;;6.20;;
63095;SDS011;49184;55.596;37.770;2023-07-31T01:36:03;14.10;;;6.50;;
63095;SDS011;49184;55.596;37.770;2023-07-31T01:38:29;12.85;;;6.25;;
63095;SDS011;49184;55.596;37.770;2023-07-31T01:40:55;19.67;;;6.47;;
63095;SDS011;49184;55.596;37.770;2023-07-31T01:43:24;19.67;;;6.85;;
63095;SDS011;49184;55.596;37.770;2023-07-31T01:45:50;30.77;;;7.07;;
63095;SDS011;49184;55.596;37.770;2023-07-31T01:48:17;19.48;;;7.13;;
63095;SDS011;49184;55.596;37.770;2023-07-31T01:50:43;16.10;;;7.13;;
63095;SDS011;49184;55.596;37.770;2023-07-31T01:53:09;16.40;;;7.07;;
63095;SDS011;49184;55.596;37.770;2023-07-31T01:55:35;15.07;;;6.83;;
63095;SDS011;49184;55.596;37.770;2023-07-31T01:58:01;16.70;;;6.85;;
63095;SDS011;49184;55.596;37.770;2023-07-31T02:00:27;20.17;;;6.40;;
63095;SDS011;49184;55.596;37.770;2023-07-31T02:02:53;16.57;;;6.03;;
63095;SDS011;49184;55.596;37.770;2023-07-31T02:05:19;19.70;;;6.87;;
63095;SDS011;49184;55.596;37.770;2023-07-31T02:07:45;15.90;;;7.83;;
63095;SDS011;49184;55.596;37.770;2023-07-31T02:10:11;12.80;;;5.90;;
63095;SDS011;49184;55.596;37.770;2023-07-31T02:12:37;28.45;;;6.72;;
63095;SDS011;49184;55.596;37.770;2023-07-31T02:15:03;18.77;;;6.93;;
63095;SDS011;49184;55.596;37.770;2023-07-31T02:17:31;15.57;;;6.10;;
63095;SDS011;49184;55.596;37.770;2023-07-31T02:19:57;17.67;;;6.37;;
63095;SDS011;49184;55.596;37.770;2023-07-31T02:22:24;21.05;;;5.95;;
63095;SDS011;49184;55.596;37.770;2023-07-31T02:24:50;22.07;;;5.93;;
63095;SDS011;49184;55.596;37.770;2023-07-31T02:27:16;27.33;;;8.67;;
63095;SDS011;49184;55.596;37.770;2023-07-31T02:29:42;15.47;;;8.17;;
63095;SDS011;49184;55.596;37.770;2023-07-31T02:32:08;25.20;;;13.43;;
63095;SDS011;49184;55.596;37.770;2023-07-31T02:37:00;26.55;;;10.20;;
63095;SDS011;49184;55.596;37.770;2023-07-31T02:39:26;22.20;;;10.10;;
63095;SDS011;49184;55.596;37.770;2023-07-31T02:41:53;25.23;;;10.52;;
63095;SDS011;49184;55.596;37.770;2023-07-31T02:44:19;17.63;;;7.53;;
63095;SDS011;49184;55.596;37.770;2023-07-31T02:46:46;14.80;;;8.23;;
63095;SDS011;49184;55.596;37.770;2023-07-31T02:49:15;14.07;;;7.10;;
63095;SDS011;49184;55.596;37.770;2023-07-31T02:51:43;16.65;;;6.90;;
63095;SDS011;49184;55.596;37.770;2023-07-31T02:54:10;19.98;;;7.20;;
63095;SDS011;49184;55.596;37.770;2023-07-31T02:56:36;15.27;;;7.25;;
63095;SDS011;49184;55.596;37.770;2023-07-31T02:59:02;14.20;;;6.97;;
63095;SDS011;49184;55.596;37.770;2023-07-31T03:01:28;17.13;;;6.25;;
63095;SDS011;49184;55.596;37.770;2023-07-31T03:03:54;18.57;;;6.53;;
63095;SDS011;49184;55.596;37.770;2023-07-31T03:06:20;13.20;;;5.47;;
63095;SDS011;49184;55.596;37.770;2023-07-31T03:08:47;17.05;;;5.70;;
63095;SDS011;49184;55.596;37.770;2023-07-31T03:11:14;13.48;;;6.03;;
63095;SDS011;49184;55.596;37.770;2023-07-31T03:16:07;17.52;;;6.20;;
63095;SDS011;49184;55.596;37.770;2023-07-31T03:18:33;11.53;;;5.60;;
63095;SDS011;49184;55.596;37.770;2023-07-31T03:20:59;11.90;;;5.70;;
63095;SDS011;49184;55.596;37.770;2023-07-31T03:23:25;12.13;;;5.97;;
63095;SDS011;49184;55.596;37.770;2023-07-31T03:28:28;21.13;;;5.85;;
63095;SDS011;49184;55.596;37.770;2023-07-31T03:30:56;26.60;;;5.88;;
63095;SDS011;49184;55.596;37.770;2023-07-31T03:33:22;17.47;;;5.93;;
63095;SDS011;49184;55.596;37.770;2023-07-31T03:35:50;22.02;;;6.28;;
63095;SDS011;49184;55.596;37.770;2023-07-31T03:38:16;18.63;;;5.78;;
63095;SDS011;49184;55.596;37.770;2023-07-31T03:40:42;23.60;;;6.17;;
63095;SDS011;49184;55.596;37.770;2023-07-31T03:43:08;21.60;;;5.53;;
63095;SDS011;49184;55.596;37.770;2023-07-31T03:45:34;12.57;;;5.40;;
63095;SDS011;49184;55.596;37.770;2023-07-31T03:48:00;17.98;;;6.47;;
63095;SDS011;49184;55.596;37.770;2023-07-31T03:50:26;18.25;;;6.35;;
63095;SDS011;49184;55.596;37.770;2023-07-31T03:52:52;8.50;;;5.53;;
63095;SDS011;49184;55.596;37.770;2023-07-31T03:55:19;21.30;;;6.03;;
63095;SDS011;49184;55.596;37.770;2023-07-31T03:57:47;17.55;;;6.13;;
63095;SDS011;49184;55.596;37.770;2023-07-31T04:00:14;27.25;;;6.15;;
63095;SDS011;49184;55.596;37.770;2023-07-31T04:05:07;18.25;;;5.88;;
63095;SDS011;49184;55.596;37.770;2023-07-31T04:07:35;20.33;;;6.07;;
63095;SDS011;49184;55.596;37.770;2023-07-31T04:10:04;14.38;;;5.07;;
63095;SDS011;49184;55.596;37.770;2023-07-31T04:12:30;14.00;;;5.00;;
63095;SDS011;49184;55.596;37.770;2023-07-31T04:14:56;15.07;;;5.07;;
63095;SDS011;49184;55.596;37.770;2023-07-31T04:17:22;13.60;;;4.80;;
63095;SDS011;49184;55.596;37.770;2023-07-31T04:22:14;14.93;;;4.60;;
63095;SDS011;49184;55.596;37.770;2023-07-31T04:24:40;8.55;;;4.53;;
63095;SDS011;49184;55.596;37.770;2023-07-31T04:27:07;10.50;;;4.67;;
63095;SDS011;49184;55.596;37.770;2023-07-31T04:29:33;9.90;;;4.28;;
63095;SDS011;49184;55.596;37.770;2023-07-31T04:31:59;12.98;;;4.60;;
63095;SDS011;49184;55.596;37.770;2023-07-31T04:34:25;9.43;;;4.40;;
63095;SDS011;49184;55.596;37.770;2023-07-31T04:36:51;22.35;;;4.53;;
63095;SDS011;49184;55.596;37.770;2023-07-31T04:39:18;11.00;;;4.60;;
63095;SDS011;49184;55.596;37.770;2023-07-31T04:41:44;22.93;;;4.90;;
63095;SDS011;49184;55.596;37.770;2023-07-31T04:44:09;13.33;;;4.47;;
63095;SDS011;49184;55.596;37.770;2023-07-31T04:46:38;9.48;;;4.32;;
63095;SDS011;49184;55.596;37.770;2023-07-31T04:49:07;8.38;;;4.70;;
63095;SDS011;49184;55.596;37.770;2023-07-31T04:51:33;12.07;;;5.30;;
63095;SDS011;49184;55.596;37.770;2023-07-31T04:53:59;18.67;;;5.37;;
63095;SDS011;49184;55.596;37.770;2023-07-31T04:56:25;15.53;;;5.60;;
63095;SDS011;49184;55.596;37.770;2023-07-31T04:58:51;9.63;;;4.77;;
63095;SDS011;49184;55.596;37.770;2023-07-31T05:01:17;10.93;;;5.03;;
63095;SDS011;49184;55.596;37.770;2023-07-31T05:03:43;8.67;;;4.93;;
63095;SDS011;49184;55.596;37.770;2023-07-31T05:06:09;10.83;;;4.80;;
63095;SDS011;49184;55.596;37.770;2023-07-31T05:08:35;8.82;;;3.83;;
63095;SDS011;49184;55.596;37.770;2023-07-31T05:11:01;10.82;;;4.05;;
63095;SDS011;49184;55.596;37.770;2023-07-31T05:13:27;13.60;;;4.20;;
63095;SDS011;49184;55.596;37.770;2023-07-31T05:15:53;9.15;;;3.95;;
63095;SDS011;49184;55.596;37.770;2023-07-31T05:18:19;8.77;;;3.53;;
63095;SDS011;49184;55.596;37.770;2023-07-31T05:20:45;7.18;;;3.90;;
63095;SDS011;49184;55.596;37.770;2023-07-31T05:23:11;7.90;;;3.97;;
63095;SDS011;49184;55.596;37.770;2023-07-31T05:25:37;9.47;;;3.60;;
63095;SDS011;49184;55.596;37.770;2023-07-31T05:28:03;6.13;;;3.47;;
63095;SDS011;49184;55.596;37.770;2023-07-31T05:30:29;13.63;;;4.30;;
63095;SDS011;49184;55.596;37.770;2023-07-31T05:32:56;9.82;;;3.95;;
63095;SDS011;49184;55.596;37.770;2023-07-31T05:35:22;12.43;;;3.80;;
63095;SDS011;49184;55.596;37.770;2023-07-31T05:37:48;9.48;;;3.53;;
63095;SDS011;49184;55.596;37.770;2023-07-31T05:40:14;8.98;;;3.63;;
63095;SDS011;49184;55.596;37.770;2023-07-31T05:45:07;7.15;;;3.63;;
63095;SDS011;49184;55.596;37.770;2023-07-31T05:47:33;11.02;;;3.35;;
63095;SDS011;49184;55.596;37.770;2023-07-31T05:49:59;8.32;;;3.17;;
63095;SDS011;49184;55.596;37.770;2023-07-31T05:52:25;16.35;;;4.00;;
63095;SDS011;49184;55.596;37.770;2023-07-31T05:54:51;30.50;;;4.55;;
63095;SDS011;49184;55.596;37.770;2023-07-31T05:57:17;14.50;;;3.80;;
63095;SDS011;49184;55.596;37.770;2023-07-31T05:59:43;13.87;;;3.37;;
63095;SDS011;49184;55.596;37.770;2023-07-31T06:02:09;16.87;;;3.20;;
63095;SDS011;49184;55.596;37.770;2023-07-31T06:04:35;4.90;;;2.67;;
63095;SDS011;49184;55.596;37.770;2023-07-31T06:07:01;7.40;;;2.73;;
63095;SDS011;49184;55.596;37.770;2023-07-31T06:09:27;8.95;;;3.38;;
63095;SDS011;49184;55.596;37.770;2023-07-31T06:11:53;5.97;;;2.93;;
63095;SDS011;49184;55.596;37.770;2023-07-31T06:14:19;6.25;;;2.85;;
63095;SDS011;49184;55.596;37.770;2023-07-31T06:16:45;9.80;;;2.53;;
63095;SDS011;49184;55.596;37.770;2023-07-31T06:19:12;13.65;;;3.83;;
63095;SDS011;49184;55.596;37.770;2023-07-31T06:21:38;8.55;;;2.97;;
63095;SDS011;49184;55.596;37.770;2023-07-31T06:24:07;14.32;;;2.90;;
63095;SDS011;49184;55.596;37.770;2023-07-31T06:26:33;9.65;;;2.80;;
63095;SDS011;49184;55.596;37.770;2023-07-31T06:28:59;5.95;;;2.50;;
63095;SDS011;49184;55.596;37.770;2023-07-31T06:31:25;16.38;;;3.30;;
63095;SDS011;49184;55.596;37.770;2023-07-31T06:33:52;4.88;;;2.78;;
63095;SDS011;49184;55.596;37.770;2023-07-31T06:36:18;6.25;;;3.10;;
63095;SDS011;49184;55.596;37.770;2023-07-31T06:38:44;5.43;;;3.00;;
63095;SDS011;49184;55.596;37.770;2023-07-31T06:41:10;5.78;;;2.70;;
63095;SDS011;49184;55.596;37.770;2023-07-31T06:43:36;8.85;;;2.83;;
63095;SDS011;49184;55.596;37.770;2023-07-31T06:48:32;7.43;;;3.10;;
63095;SDS011;49184;55.596;37.770;2023-07-31T06:51:00;5.72;;;2.55;;
63095;SDS011;49184;55.596;37.770;2023-07-31T06:53:26;5.93;;;2.50;;
63095;SDS011;49184;55.596;37.770;2023-07-31T06:55:52;7.82;;;2.58;;
63095;SDS011;49184;55.596;37.770;2023-07-31T06:58:18;9.20;;;3.10;;
63095;SDS011;49184;55.596;37.770;2023-07-31T07:00:47;9.93;;;2.95;;
63095;SDS011;49184;55.596;37.770;2023-07-31T07:03:17;10.32;;;2.63;;
63095;SDS011;49184;55.596;37.770;2023-07-31T07:05:44;9.07;;;2.97;;
63095;SDS011;49184;55.596;37.770;2023-07-31T07:08:10;10.05;;;3.15;;
63095;SDS011;49184;55.596;37.770;2023-07-31T07:10:36;9.32;;;3.30;;
63095;SDS011;49184;55.596;37.770;2023-07-31T07:13:02;10.35;;;3.05;;
63095;SDS011;49184;55.596;37.770;2023-07-31T07:15:28;3.88;;;2.40;;
63095;SDS011;49184;55.596;37.770;2023-07-31T07:17:54;6.80;;;2.88;;
63095;SDS011;49184;55.596;37.770;2023-07-31T07:20:20;7.95;;;3.17;;
63095;SDS011;49184;55.596;37.770;2023-07-31T07:22:46;9.15;;;2.50;;
63095;SDS011;49184;55.596;37.770;2023-07-31T07:25:15;6.85;;;2.75;;
63095;SDS011;49184;55.596;37.770;2023-07-31T07:27:41;7.38;;;2.35;;
63095;SDS011;49184;55.596;37.770;2023-07-31T07:30:07;3.20;;;2.25;;
63095;SDS011;49184;55.596;37.770;2023-07-31T07:34:59;6.00;;;2.70;;
63095;SDS011;49184;55.596;37.770;2023-07-31T07:37:26;6.03;;;2.38;;
63095;SDS011;49184;55.596;37.770;2023-07-31T07:39:52;6.85;;;3.08;;
63095;SDS011;49184;55.596;37.770;2023-07-31T07:42:18;4.93;;;2.80;;
63095;SDS011;49184;55.596;37.770;2023-07-31T07:44:44;3.33;;;2.22;;
63095;SDS011;49184;55.596;37.770;2023-07-31T07:47:10;6.65;;;2.40;;
63095;SDS011;49184;55.596;37.770;2023-07-31T07:49:36;7.20;;;2.85;;
63095;SDS011;49184;55.596;37.770;2023-07-31T07:52:02;3.97;;;2.60;;
63095;SDS011;49184;55.596;37.770;2023-07-31T07:54:29;5.05;;;2.45;;
63095;SDS011;49184;55.596;37.770;2023-07-31T07:56:55;2.88;;;2.22;;
63095;SDS011;49184;55.596;37.770;2023-07-31T07:59:21;4.15;;;2.10;;
63095;SDS011;49184;55.596;37.770;2023-07-31T08:01:47;3.83;;;2.10;;
63095;SDS011;49184;55.596;37.770;2023-07-31T08:04:13;2.58;;;1.90;;
63095;SDS011;49184;55.596;37.770;2023-07-31T08:06:40;9.38;;;2.25;;
63095;SDS011;49184;55.596;37.770;2023-07-31T08:09:09;3.83;;;2.40;;
63095;SDS011;49184;55.596;37.770;2023-07-31T08:11:35;4.55;;;2.47;;
63095;SDS011;49184;55.596;37.770;2023-07-31T08:14:01;9.18;;;2.47;;
63095;SDS011;49184;55.596;37.770;2023-07-31T08:16:28;7.13;;;2.50;;
63095;SDS011;49184;55.596;37.770;2023-07-31T08:18:54;6.15;;;2.40;;
63095;SDS011;49184;55.596;37.770;2023-07-31T08:21:21;14.15;;;3.00;;
63095;SDS011;49184;55.596;37.770;2023-07-31T08:23:47;10.07;;;2.40;;
63095;SDS011;49184;55.596;37.770;2023-07-31T08:26:16;4.47;;;2.28;;
63095;SDS011;49184;55.596;37.770;2023-07-31T08:28:44;3.28;;;2.20;;
63095;SDS011;49184;55.596;37.770;2023-07-31T08:31:10;6.32;;;2.50;;
63095;SDS011;49184;55.596;37.770;2023-07-31T08:33:37;4.43;;;2.40;;
63095;SDS011;49184;55.596;37.770;2023-07-31T08:36:04;5.45;;;2.35;;
63095;SDS011;49184;55.596;37.770;2023-07-31T08:38:30;23.80;;;3.83;;
63095;SDS011;49184;55.596;37.770;2023-07-31T08:40:57;6.28;;;2.75;;
63095;SDS011;49184;55.596;37.770;2023-07-31T08:45:54;3.67;;;2.50;;
63095;SDS011;49184;55.596;37.770;2023-07-31T08:48:22;3.97;;;2.50;;
63095;SDS011;49184;55.596;37.770;2023-07-31T08:50:51;7.35;;;2.53;;
63095;SDS011;49184;55.596;37.770;2023-07-31T08:53:18;7.07;;;2.83;;
63095;SDS011;49184;55.596;37.770;2023-07-31T08:55:45;3.90;;;2.60;;
63095;SDS011;49184;55.596;37.770;2023-07-31T08:58:12;3.20;;;2.25;;
63095;SDS011;49184;55.596;37.770;2023-07-31T09:00:40;7.57;;;2.70;;
63095;SDS011;49184;55.596;37.770;2023-07-31T09:03:11;5.38;;;2.55;;
63095;SDS011;49184;55.596;37.770;2023-07-31T09:05:42;6.35;;;2.70;;
63095;SDS011;49184;55.596;37.770;2023-07-31T09:08:11;4.72;;;2.90;;
63095;SDS011;49184;55.596;37.770;2023-07-31T09:10:42;4.75;;;2.47;;
63095;SDS011;49184;55.596;37.770;2023-07-31T09:13:09;5.93;;;2.70;;
63095;SDS011;49184;55.596;37.770;2023-07-31T09:15:37;4.53;;;2.50;;
63095;SDS011;49184;55.596;37.770;2023-07-31T09:18:04;11.18;;;2.67;;
63095;SDS011;49184;55.596;37.770;2023-07-31T09:20:32;9.25;;;2.88;;
63095;SDS011;49184;55.596;37.770;2023-07-31T09:23:08;9.52;;;2.95;;
63095;SDS011;49184;55.596;37.770;2023-07-31T09:25:36;5.68;;;2.65;;
63095;SDS011;49184;55.596;37.770;2023-07-31T09:28:04;3.85;;;2.97;;
63095;SDS011;49184;55.596;37.770;2023-07-31T09:30:49;7.00;;;2.80;;
63095;SDS011;49184;55.596;37.770;2023-07-31T09:33:18;4.75;;;2.80;;
63095;SDS011;49184;55.596;37.770;2023-07-31T09:35:45;4.93;;;2.35;;
63095;SDS011;49184;55.596;37.770;2023-07-31T09:38:14;8.00;;;2.85;;
63095;SDS011;49184;55.596;37.770;2023-07-31T09:40:43;6.25;;;3.10;;
63095;SDS011;49184;55.596;37.770;2023-07-31T09:43:18;9.23;;;3.28;;
63095;SDS011;49184;55.596;37.770;2023-07-31T09:45:45;4.82;;;3.05;;
63095;SDS011;49184;55.596;37.770;2023-07-31T09:50:38;9.73;;;3.13;;
63095;SDS011;49184;55.596;37.770;2023-07-31T09:53:07;6.28;;;3.65;;
63095;SDS011;49184;55.596;37.770;2023-07-31T09:55:33;7.05;;;3.13;;
63095;SDS011;49184;55.596;37.770;2023-07-31T09:58:05;9.68;;;3.05;;
63095;SDS011;49184;55.596;37.770;2023-07-31T10:00:34;6.55;;;2.90;;
63095;SDS011;49184;55.596;37.770;2023-07-31T10:03:06;8.13;;;3.15;;
63095;SDS011;49184;55.596;37.770;2023-07-31T10:05:38;7.68;;;3.63;;
63095;SDS011;49184;55.596;37.770;2023-07-31T10:08:09;5.40;;;2.80;;
63095;SDS011;49184;55.596;37.770;2023-07-31T10:10:37;5.18;;;2.85;;
63095;SDS011;49184;55.596;37.770;2023-07-31T10:13:09;8.60;;;3.33;;
63095;SDS011;49184;55.596;37.770;2023-07-31T10:15:36;8.00;;;3.33;;
63095;SDS011;49184;55.596;37.770;2023-07-31T10:18:06;3.30;;;2.88;;
63095;SDS011;49184;55.596;37.770;2023-07-31T10:20:33;7.32;;;3.20;;
63095;SDS011;49184;55.596;37.770;2023-07-31T10:23:00;15.30;;;3.80;;
63095;SDS011;49184;55.596;37.770;2023-07-31T10:27:53;10.55;;;3.50;;
63095;SDS011;49184;55.596;37.770;2023-07-31T10:32:53;3.40;;;2.60;;
63095;SDS011;49184;55.596;37.770;2023-07-31T10:35:24;3.67;;;2.83;;
63095;SDS011;49184;55.596;37.770;2023-07-31T10:37:51;9.07;;;3.30;;
63095;SDS011;49184;55.596;37.770;2023-07-31T10:40:19;3.65;;;3.17;;
63095;SDS011;49184;55.596;37.770;2023-07-31T10:42:50;5.40;;;2.90;;
63095;SDS011;49184;55.596;37.770;2023-07-31T10:45:31;3.95;;;2.80;;
63095;SDS011;49184;55.596;37.770;2023-07-31T10:48:16;9.93;;;3.58;;
63095;SDS011;49184;55.596;37.770;2023-07-31T10:50:49;8.00;;;3.75;;
63095;SDS011;49184;55.596;37.770;2023-07-31T10:53:31;7.00;;;3.22;;
63095;SDS011;49184;55.596;37.770;2023-07-31T10:56:02;7.03;;;3.53;;
63095;SDS011;49184;55.596;37.770;2023-07-31T10:58:31;5.47;;;3.40;;
63095;SDS011;49184;55.596;37.770;2023-07-31T11:00:58;10.07;;;3.67;;
63095;SDS011;49184;55.596;37.770;2023-07-31T11:04:05;5.07;;;3.28;;
63095;SDS011;49184;55.596;37.770;2023-07-31T11:06:22;6.32;;;3.13;;
63095;SDS011;49184;55.596;37.770;2023-07-31T11:08:49;6.57;;;3.00;;
63095;SDS011;49184;55.596;37.770;2023-07-31T11:11:17;4.25;;;3.17;;
63095;SDS011;49184;55.596;37.770;2023-07-31T11:13:44;7.25;;;3.80;;
63095;SDS011;49184;55.596;37.770;2023-07-31T11:16:15;10.55;;;3.70;;
63095;SDS011;49184;55.596;37.770;2023-07-31T11:18:43;5.88;;;3.58;;
63095;SDS011;49184;55.596;37.770;2023-07-31T11:21:17;7.97;;;3.50;;
63095;SDS011;49184;55.596;37.770;2023-07-31T11:23:45;7.03;;;3.63;;
63095;SDS011;49184;55.596;37.770;2023-07-31T11:26:17;6.13;;;3.97;;
63095;SDS011;49184;55.596;37.770;2023-07-31T11:28:46;19.65;;;3.72;;
63095;SDS011;49184;55.596;37.770;2023-07-31T11:31:12;5.88;;;3.33;;
63095;SDS011;49184;55.596;37.770;2023-07-31T11:33:39;6.70;;;3.33;;
63095;SDS011;49184;55.596;37.770;2023-07-31T11:36:05;4.25;;;3.08;;
63095;SDS011;49184;55.596;37.770;2023-07-31T11:38:40;9.15;;;3.60;;
63095;SDS011;49184;55.596;37.770;2023-07-31T11:41:06;7.68;;;3.83;;
63095;SDS011;49184;55.596;37.770;2023-07-31T11:43:32;6.32;;;3.00;;
63095;SDS011;49184;55.596;37.770;2023-07-31T11:45:59;6.18;;;3.35;;
63095;SDS011;49184;55.596;37.770;2023-07-31T11:48:30;6.57;;;3.50;;
63095;SDS011;49184;55.596;37.770;2023-07-31T11:51:05;7.55;;;3.65;;
63095;SDS011;49184;55.596;37.770;2023-07-31T11:53:42;20.48;;;4.05;;
63095;SDS011;49184;55.596;37.770;2023-07-31T11:56:12;7.13;;;3.45;;
63095;SDS011;49184;55.596;37.770;2023-07-31T11:58:39;8.30;;;3.45;;
63095;SDS011;49184;55.596;37.770;2023-07-31T12:01:08;28.90;;;3.78;;
63095;SDS011;49184;55.596;37.770;2023-07-31T12:03:34;13.95;;;3.70;;
63095;SDS011;49184;55.596;37.770;2023-07-31T12:08:27;7.05;;;3.67;;
63095;SDS011;49184;55.596;37.770;2023-07-31T12:10:54;13.57;;;3.95;;
63095;SDS011;49184;55.596;37.770;2023-07-31T12:13:28;12.15;;;4.45;;
63095;SDS011;49184;55.596;37.770;2023-07-31T12:15:59;6.72;;;3.85;;
63095;SDS011;49184;55.596;37.770;2023-07-31T12:18:28;12.52;;;4.25;;
63095;SDS011;49184;55.596;37.770;2023-07-31T12:23:24;8.23;;;3.70;;
63095;SDS011;49184;55.596;37.770;2023-07-31T12:26:08;18.48;;;3.83;;
63095;SDS011;49184;55.596;37.770;2023-07-31T12:28:37;4.82;;;3.67;;
63095;SDS011;49184;55.596;37.770;2023-07-31T12:31:05;6.82;;;3.65;;
63095;SDS011;49184;55.596;37.770;2023-07-31T12:33:34;7.65;;;3.90;;
63095;SDS011;49184;55.596;37.770;2023-07-31T12:36:02;5.88;;;3.58;;
63095;SDS011;49184;55.596;37.770;2023-07-31T12:38:30;6.68;;;3.80;;
63095;SDS011;49184;55.596;37.770;2023-07-31T12:40:56;7.78;;;3.78;;
63095;SDS011;49184;55.596;37.770;2023-07-31T12:43:22;6.97;;;3.55;;
63095;SDS011;49184;55.596;37.770;2023-07-31T12:45:48;4.63;;;3.63;;
63095;SDS011;49184;55.596;37.770;2023-07-31T12:48:14;9.20;;;3.38;;
63095;SDS011;49184;55.596;37.770;2023-07-31T12:50:40;6.75;;;3.72;;
63095;SDS011;49184;55.596;37.770;2023-07-31T12:53:06;7.80;;;3.60;;
63095;SDS011;49184;55.596;37.770;2023-07-31T12:55:32;11.57;;;3.35;;
63095;SDS011;49184;55.596;37.770;2023-07-31T12:58:02;7.57;;;4.07;;
63095;SDS011;49184;55.596;37.770;2023-07-31T13:00:28;8.88;;;3.20;;
63095;SDS011;49184;55.596;37.770;2023-07-31T13:02:55;13.45;;;3.90;;
63095;SDS011;49184;55.596;37.770;2023-07-31T13:05:22;14.43;;;3.63;;
63095;SDS011;49184;55.596;37.770;2023-07-31T13:07:48;6.10;;;3.72;;
63095;SDS011;49184;55.596;37.770;2023-07-31T13:10:14;12.00;;;3.78;;
63095;SDS011;49184;55.596;37.770;2023-07-31T13:12:40;7.82;;;2.97;;
63095;SDS011;49184;55.596;37.770;2023-07-31T13:15:06;12.27;;;3.53;;
63095;SDS011;49184;55.596;37.770;2023-07-31T13:19:59;7.47;;;3.85;;
63095;SDS011;49184;55.596;37.770;2023-07-31T13:22:25;11.30;;;3.70;;
63095;SDS011;49184;55.596;37.770;2023-07-31T13:24:52;9.23;;;3.38;;
63095;SDS011;49184;55.596;37.770;2023-07-31T13:27:18;7.57;;;3.25;;
63095;SDS011;49184;55.596;37.770;2023-07-31T13:29:48;7.90;;;3.33;;
63095;SDS011;49184;55.596;37.770;2023-07-31T13:32:15;6.38;;;3.80;;
63095;SDS011;49184;55.596;37.770;2023-07-31T13:34:42;17.30;;;3.58;;
63095;SDS011;49184;55.596;37.770;2023-07-31T13:37:08;4.90;;;3.40;;
63095;SDS011;49184;55.596;37.770;2023-07-31T13:39:34;10.70;;;3.70;;
63095;SDS011;49184;55.596;37.770;2023-07-31T13:42:01;17.08;;;3.97;;
63095;SDS011;49184;55.596;37.770;2023-07-31T13:44:28;12.85;;;4.63;;
63095;SDS011;49184;55.596;37.770;2023-07-31T13:46:55;17.85;;;4.15;;
63095;SDS011;49184;55.596;37.770;2023-07-31T13:49:20;8.70;;;4.00;;
63095;SDS011;49184;55.596;37.770;2023-07-31T13:51:46;17.13;;;3.92;;
63095;SDS011;49184;55.596;37.770;2023-07-31T13:54:13;14.05;;;5.05;;
63095;SDS011;49184;55.596;37.770;2023-07-31T13:56:40;10.63;;;3.95;;
63095;SDS011;49184;55.596;37.770;2023-07-31T13:59:07;19.00;;;4.60;;
63095;SDS011;49184;55.596;37.770;2023-07-31T14:01:34;9.63;;;4.00;;
63095;SDS011;49184;55.596;37.770;2023-07-31T14:03:59;12.35;;;4.47;;
63095;SDS011;49184;55.596;37.770;2023-07-31T14:06:25;9.75;;;3.78;;
63095;SDS011;49184;55.596;37.770;2023-07-31T14:08:52;9.80;;;4.50;;
63095;SDS011;49184;55.596;37.770;2023-07-31T14:11:18;15.07;;;3.90;;
63095;SDS011;49184;55.596;37.770;2023-07-31T14:13:44;10.15;;;3.83;;
63095;SDS011;49184;55.596;37.770;2023-07-31T14:16:11;15.95;;;4.00;;
63095;SDS011;49184;55.596;37.770;2023-07-31T14:18:37;14.02;;;3.63;;
63095;SDS011;49184;55.596;37.770;2023-07-31T14:21:03;11.52;;;3.58;;
63095;SDS011;49184;55.596;37.770;2023-07-31T14:23:29;10.82;;;3.90;;
63095;SDS011;49184;55.596;37.770;2023-07-31T14:25:55;13.07;;;3.92;;
63095;SDS011;49184;55.596;37.770;2023-07-31T14:28:21;10.00;;;4.05;;
63095;SDS011;49184;55.596;37.770;2023-07-31T14:30:47;10.32;;;3.25;;
63095;SDS011;49184;55.596;37.770;2023-07-31T14:33:13;12.30;;;3.45;;
63095;SDS011;49184;55.596;37.770;2023-07-31T14:35:39;9.93;;;3.10;;
63095;SDS011;49184;55.596;37.770;2023-07-31T14:38:05;9.73;;;3.75;;
63095;SDS011;49184;55.596;37.770;2023-07-31T14:40:32;9.65;;;3.55;;
63095;SDS011;49184;55.596;37.770;2023-07-31T14:42:58;6.72;;;3.55;;
63095;SDS011;49184;55.596;37.770;2023-07-31T14:45:25;7.40;;;3.30;;
63095;SDS011;49184;55.596;37.770;2023-07-31T14:47:51;6.88;;;3.45;;
63095;SDS011;49184;55.596;37.770;2023-07-31T14:50:19;20.10;;;3.63;;
63095;SDS011;49184;55.596;37.770;2023-07-31T14:52:47;13.15;;;3.50;;
63095;SDS011;49184;55.596;37.770;2023-07-31T14:55:15;7.93;;;3.50;;
63095;SDS011;49184;55.596;37.770;2023-07-31T14:57:41;8.48;;;3.58;;
63095;SDS011;49184;55.596;37.770;2023-07-31T15:00:07;16.23;;;3.58;;
63095;SDS011;49184;55.596;37.770;2023-07-31T15:02:34;5.85;;;3.70;;
63095;SDS011;49184;55.596;37.770;2023-07-31T15:05:01;12.55;;;3.50;;
63095;SDS011;49184;55.596;37.770;2023-07-31T15:07:29;7.35;;;3.03;;
63095;SDS011;49184;55.596;37.770;2023-07-31T15:09:55;8.52;;;3.72;;
63095;SDS011;49184;55.596;37.770;2023-07-31T15:12:21;4.93;;;3.55;;
63095;SDS011;49184;55.596;37.770;2023-07-31T15:14:48;8.00;;;3.40;;